sensor_id;sensor_type;location;lat;lon;timestamp;temperature;humidity
43015;DHT22;28637;50.554;7.032;2024-01-30T00:03:53;8.90;99.90
43015;DHT22;28637;50.554;7.032;2024-01-30T00:08:54;8.90;99.90
43015;DHT22;28637;50.554;7.032;2024-01-30T00:13:55;8.80;99.90
43015;DHT22;28637;50.554;7.032;2024-01-30T00:18:57;8.60;99.90
43015;DHT22;28637;50.554;7.032;2024-01-30T00:23:57;8.60;99.90
43015;DHT22;28637;50.554;7.032;2024-01-30T00:28:58;8.60;99.90
43015;DHT22;28637;50.554;7.032;2024-01-30T00:33:59;8.50;99.90
43015;DHT22;28637;50.554;7.032;2024-01-30T00:38:59;8.40;99.90
43015;DHT22;28637;50.554;7.032;2024-01-30T00:44:02;8.40;99.90
43015;DHT22;28637;50.554;7.032;2024-01-30T00:49:08;8.50;99.90
43015;DHT22;28637;50.554;7.032;2024-01-30T00:54:28;8.60;99.90
43015;DHT22;28637;50.554;7.032;2024-01-30T00:59:29;8.70;99.90
43015;DHT22;28637;50.554;7.032;2024-01-30T01:04:30;8.80;99.90
43015;DHT22;28637;50.554;7.032;2024-01-30T01:09:33;8.80;99.90
43015;DHT22;28637;50.554;7.032;2024-01-30T01:14:38;8.80;99.90
43015;DHT22;28637;50.554;7.032;2024-01-30T01:19:39;8.70;99.90
43015;DHT22;28637;50.554;7.032;2024-01-30T01:24:43;8.60;99.90
43015;DHT22;28637;50.554;7.032;2024-01-30T01:29:46;8.50;99.90
43015;DHT22;28637;50.554;7.032;2024-01-30T01:34:48;8.40;99.90
43015;DHT22;28637;50.554;7.032;2024-01-30T01:39:49;8.40;99.90
43015;DHT22;28637;50.554;7.032;2024-01-30T01:44:51;8.30;99.90
43015;DHT22;28637;50.554;7.032;2024-01-30T01:49:57;8.20;99.90
43015;DHT22;28637;50.554;7.032;2024-01-30T01:55:01;8.20;99.90
43015;DHT22;28637;50.554;7.032;2024-01-30T02:00:06;8.10;99.90
43015;DHT22;28637;50.554;7.032;2024-01-30T02:05:08;7.90;99.90
43015;DHT22;28637;50.554;7.032;2024-01-30T02:10:09;8.20;99.90
43015;DHT22;28637;50.554;7.032;2024-01-30T02:15:13;8.40;99.90
43015;DHT22;28637;50.554;7.032;2024-01-30T02:20:21;8.40;99.90
43015;DHT22;28637;50.554;7.032;2024-01-30T02:25:36;8.60;99.90
43015;DHT22;28637;50.554;7.032;2024-01-30T02:30:38;8.50;99.90
43015;DHT22;28637;50.554;7.032;2024-01-30T02:35:40;8.30;99.90
43015;DHT22;28637;50.554;7.032;2024-01-30T02:40:41;8.20;99.90
43015;DHT22;28637;50.554;7.032;2024-01-30T02:45:42;8.00;99.90
43015;DHT22;28637;50.554;7.032;2024-01-30T02:50:47;7.90;99.90
43015;DHT22;28637;50.554;7.032;2024-01-30T02:55:54;7.80;99.90
43015;DHT22;28637;50.554;7.032;2024-01-30T03:00:55;7.80;99.90
43015;DHT22;28637;50.554;7.032;2024-01-30T03:05:58;7.70;99.90
43015;DHT22;28637;50.554;7.032;2024-01-30T03:10:58;7.60;99.90
43015;DHT22;28637;50.554;7.032;2024-01-30T03:21:56;7.40;99.90
43015;DHT22;28637;50.554;7.032;2024-01-30T03:27:00;7.30;99.90
43015;DHT22;28637;50.554;7.032;2024-01-30T03:32:00;7.30;99.90
43015;DHT22;28637;50.554;7.032;2024-01-30T03:37:02;7.70;99.90
43015;DHT22;28637;50.554;7.032;2024-01-30T03:42:06;7.90;99.90
43015;DHT22;28637;50.554;7.032;2024-01-30T03:47:09;8.10;99.90
43015;DHT22;28637;50.554;7.032;2024-01-30T03:52:11;8.00;99.90
43015;DHT22;28637;50.554;7.032;2024-01-30T03:57:11;8.00;99.90
43015;DHT22;28637;50.554;7.032;2024-01-30T04:02:14;7.90;99.90
43015;DHT22;28637;50.554;7.032;2024-01-30T04:07:14;7.80;99.90
43015;DHT22;28637;50.554;7.032;2024-01-30T04:12:15;7.80;99.90
43015;DHT22;28637;50.554;7.032;2024-01-30T04:17:16;7.90;99.90
43015;DHT22;28637;50.554;7.032;2024-01-30T04:22:19;8.00;99.90
43015;DHT22;28637;50.554;7.032;2024-01-30T04:27:21;8.10;99.90
43015;DHT22;28637;50.554;7.032;2024-01-30T04:32:22;8.10;99.90
43015;DHT22;28637;50.554;7.032;2024-01-30T04:37:23;8.20;99.90
43015;DHT22;28637;50.554;7.032;2024-01-30T04:42:24;8.30;99.90
43015;DHT22;28637;50.554;7.032;2024-01-30T04:47:24;8.40;99.90
43015;DHT22;28637;50.554;7.032;2024-01-30T04:52:25;8.50;99.90
43015;DHT22;28637;50.554;7.032;2024-01-30T04:57:25;8.50;99.90
43015;DHT22;28637;50.554;7.032;2024-01-30T05:02:27;8.50;99.90
43015;DHT22;28637;50.554;7.032;2024-01-30T05:07:27;8.50;99.90
43015;DHT22;28637;50.554;7.032;2024-01-30T05:12:28;8.40;99.90
43015;DHT22;28637;50.554;7.032;2024-01-30T05:17:29;8.30;99.90
43015;DHT22;28637;50.554;7.032;2024-01-30T05:22:29;8.30;99.90
43015;DHT22;28637;50.554;7.032;2024-01-30T05:27:30;8.30;99.90
43015;DHT22;28637;50.554;7.032;2024-01-30T05:32:30;8.30;99.90
43015;DHT22;28637;50.554;7.032;2024-01-30T05:37:31;8.30;99.90
43015;DHT22;28637;50.554;7.032;2024-01-30T05:42:32;8.30;99.90
43015;DHT22;28637;50.554;7.032;2024-01-30T05:47:32;8.20;99.90
43015;DHT22;28637;50.554;7.032;2024-01-30T05:52:33;8.10;99.90
43015;DHT22;28637;50.554;7.032;2024-01-30T05:57:34;8.10;99.90
43015;DHT22;28637;50.554;7.032;2024-01-30T06:02:34;8.10;99.90
43015;DHT22;28637;50.554;7.032;2024-01-30T06:07:35;8.20;99.90
43015;DHT22;28637;50.554;7.032;2024-01-30T06:12:36;8.20;99.90
43015;DHT22;28637;50.554;7.032;2024-01-30T06:17:37;8.10;99.90
43015;DHT22;28637;50.554;7.032;2024-01-30T06:22:37;8.10;99.90
43015;DHT22;28637;50.554;7.032;2024-01-30T06:27:38;8.10;99.90
43015;DHT22;28637;50.554;7.032;2024-01-30T06:32:39;8.10;99.90
43015;DHT22;28637;50.554;7.032;2024-01-30T06:37:39;8.10;99.90
43015;DHT22;28637;50.554;7.032;2024-01-30T06:42:40;8.10;99.90
43015;DHT22;28637;50.554;7.032;2024-01-30T06:47:40;8.10;99.90
43015;DHT22;28637;50.554;7.032;2024-01-30T06:52:41;8.10;99.90
43015;DHT22;28637;50.554;7.032;2024-01-30T06:57:42;8.20;99.90
43015;DHT22;28637;50.554;7.032;2024-01-30T07:02:42;8.20;99.90
43015;DHT22;28637;50.554;7.032;2024-01-30T07:07:43;8.20;99.90
43015;DHT22;28637;50.554;7.032;2024-01-30T07:12:43;8.20;99.90
43015;DHT22;28637;50.554;7.032;2024-01-30T07:17:44;8.20;99.90
43015;DHT22;28637;50.554;7.032;2024-01-30T07:22:46;8.20;99.90
43015;DHT22;28637;50.554;7.032;2024-01-30T07:27:46;8.30;99.90
43015;DHT22;28637;50.554;7.032;2024-01-30T07:32:47;8.30;99.90
43015;DHT22;28637;50.554;7.032;2024-01-30T07:37:48;8.40;99.90
43015;DHT22;28637;50.554;7.032;2024-01-30T07:42:48;8.40;99.90
43015;DHT22;28637;50.554;7.032;2024-01-30T07:47:49;8.50;99.90
43015;DHT22;28637;50.554;7.032;2024-01-30T07:52:50;8.60;99.90
43015;DHT22;28637;50.554;7.032;2024-01-30T07:57:55;8.60;99.90
43015;DHT22;28637;50.554;7.032;2024-01-30T08:02:56;8.60;99.90
43015;DHT22;28637;50.554;7.032;2024-01-30T08:07:57;8.70;99.90
43015;DHT22;28637;50.554;7.032;2024-01-30T08:12:57;8.80;99.90
43015;DHT22;28637;50.554;7.032;2024-01-30T08:17:58;8.70;99.90
43015;DHT22;28637;50.554;7.032;2024-01-30T08:22:59;8.70;99.90
43015;DHT22;28637;50.554;7.032;2024-01-30T08:28:00;8.80;99.90
43015;DHT22;28637;50.554;7.032;2024-01-30T08:33:01;8.80;99.90
43015;DHT22;28637;50.554;7.032;2024-01-30T08:38:02;8.90;99.90
43015;DHT22;28637;50.554;7.032;2024-01-30T08:43:03;8.90;99.90
43015;DHT22;28637;50.554;7.032;2024-01-30T08:48:04;8.90;99.90
43015;DHT22;28637;50.554;7.032;2024-01-30T08:53:05;8.90;99.90
43015;DHT22;28637;50.554;7.032;2024-01-30T08:58:06;8.90;99.90
43015;DHT22;28637;50.554;7.032;2024-01-30T09:03:06;8.90;99.90
43015;DHT22;28637;50.554;7.032;2024-01-30T09:08:07;8.90;99.90
43015;DHT22;28637;50.554;7.032;2024-01-30T09:13:07;8.90;99.90
43015;DHT22;28637;50.554;7.032;2024-01-30T09:18:09;8.90;99.90
43015;DHT22;28637;50.554;7.032;2024-01-30T09:23:10;9.00;99.90
43015;DHT22;28637;50.554;7.032;2024-01-30T09:28:11;9.10;99.90
43015;DHT22;28637;50.554;7.032;2024-01-30T09:33:11;9.20;99.90
43015;DHT22;28637;50.554;7.032;2024-01-30T09:38:12;9.50;99.90
43015;DHT22;28637;50.554;7.032;2024-01-30T09:43:16;9.60;99.90
43015;DHT22;28637;50.554;7.032;2024-01-30T09:48:19;9.70;99.90
43015;DHT22;28637;50.554;7.032;2024-01-30T09:53:20;9.70;99.90
43015;DHT22;28637;50.554;7.032;2024-01-30T09:58:22;9.70;99.90
43015;DHT22;28637;50.554;7.032;2024-01-30T10:03:23;9.70;99.90
43015;DHT22;28637;50.554;7.032;2024-01-30T10:08:23;9.80;99.90
43015;DHT22;28637;50.554;7.032;2024-01-30T10:13:24;9.80;99.90
43015;DHT22;28637;50.554;7.032;2024-01-30T10:18:25;10.00;99.90
43015;DHT22;28637;50.554;7.032;2024-01-30T10:23:26;10.10;99.90
43015;DHT22;28637;50.554;7.032;2024-01-30T10:28:30;10.20;99.90
43015;DHT22;28637;50.554;7.032;2024-01-30T10:33:31;10.40;99.90
43015;DHT22;28637;50.554;7.032;2024-01-30T10:38:32;10.50;99.90
43015;DHT22;28637;50.554;7.032;2024-01-30T10:43:40;10.50;99.90
43015;DHT22;28637;50.554;7.032;2024-01-30T10:48:43;10.60;99.90
43015;DHT22;28637;50.554;7.032;2024-01-30T10:53:46;10.50;99.90
43015;DHT22;28637;50.554;7.032;2024-01-30T10:58:51;10.50;99.90
43015;DHT22;28637;50.554;7.032;2024-01-30T11:03:53;10.40;99.90
43015;DHT22;28637;50.554;7.032;2024-01-30T11:09:03;10.50;99.90
43015;DHT22;28637;50.554;7.032;2024-01-30T11:14:04;10.40;99.90
43015;DHT22;28637;50.554;7.032;2024-01-30T11:19:11;10.40;99.90
43015;DHT22;28637;50.554;7.032;2024-01-30T11:24:14;10.30;99.90
43015;DHT22;28637;50.554;7.032;2024-01-30T11:29:15;10.30;99.90
43015;DHT22;28637;50.554;7.032;2024-01-30T11:34:17;10.30;99.90
43015;DHT22;28637;50.554;7.032;2024-01-30T11:39:20;10.40;99.90
43015;DHT22;28637;50.554;7.032;2024-01-30T11:44:24;10.80;99.90
43015;DHT22;28637;50.554;7.032;2024-01-30T11:49:24;11.10;99.90
43015;DHT22;28637;50.554;7.032;2024-01-30T11:54:25;10.90;99.90
43015;DHT22;28637;50.554;7.032;2024-01-30T11:59:26;10.90;99.90
43015;DHT22;28637;50.554;7.032;2024-01-30T12:04:29;11.10;99.90
43015;DHT22;28637;50.554;7.032;2024-01-30T12:09:30;11.40;99.90
43015;DHT22;28637;50.554;7.032;2024-01-30T12:14:31;11.80;99.90
43015;DHT22;28637;50.554;7.032;2024-01-30T12:19:32;11.70;99.90
43015;DHT22;28637;50.554;7.032;2024-01-30T12:24:32;11.60;99.90
43015;DHT22;28637;50.554;7.032;2024-01-30T12:29:33;11.50;99.90
43015;DHT22;28637;50.554;7.032;2024-01-30T12:34:34;11.60;99.90
43015;DHT22;28637;50.554;7.032;2024-01-30T12:39:35;11.40;99.90
43015;DHT22;28637;50.554;7.032;2024-01-30T12:44:35;11.30;99.90
43015;DHT22;28637;50.554;7.032;2024-01-30T12:49:36;11.20;99.90
43015;DHT22;28637;50.554;7.032;2024-01-30T12:54:37;11.20;99.90
43015;DHT22;28637;50.554;7.032;2024-01-30T12:59:37;11.20;99.90
43015;DHT22;28637;50.554;7.032;2024-01-30T13:04:38;11.20;99.90
43015;DHT22;28637;50.554;7.032;2024-01-30T13:09:39;11.20;99.90
43015;DHT22;28637;50.554;7.032;2024-01-30T13:14:40;11.20;99.90
43015;DHT22;28637;50.554;7.032;2024-01-30T13:19:41;11.40;99.90
43015;DHT22;28637;50.554;7.032;2024-01-30T13:24:41;11.40;99.90
43015;DHT22;28637;50.554;7.032;2024-01-30T13:29:42;11.30;99.90
43015;DHT22;28637;50.554;7.032;2024-01-30T13:34:42;11.20;99.90
43015;DHT22;28637;50.554;7.032;2024-01-30T13:39:43;11.20;99.90
43015;DHT22;28637;50.554;7.032;2024-01-30T13:44:44;11.10;99.90
43015;DHT22;28637;50.554;7.032;2024-01-30T13:49:44;11.10;99.90
43015;DHT22;28637;50.554;7.032;2024-01-30T13:54:45;11.20;99.90
43015;DHT22;28637;50.554;7.032;2024-01-30T13:59:45;11.30;99.90
43015;DHT22;28637;50.554;7.032;2024-01-30T14:04:47;11.30;99.90
43015;DHT22;28637;50.554;7.032;2024-01-30T14:09:48;11.30;99.90
43015;DHT22;28637;50.554;7.032;2024-01-30T14:14:49;11.30;99.90
43015;DHT22;28637;50.554;7.032;2024-01-30T14:19:50;11.30;99.90
43015;DHT22;28637;50.554;7.032;2024-01-30T14:24:51;11.30;99.90
43015;DHT22;28637;50.554;7.032;2024-01-30T14:29:51;11.20;99.90
43015;DHT22;28637;50.554;7.032;2024-01-30T14:34:52;11.20;99.90
43015;DHT22;28637;50.554;7.032;2024-01-30T14:39:53;11.20;99.90
43015;DHT22;28637;50.554;7.032;2024-01-30T14:44:53;11.20;99.90
43015;DHT22;28637;50.554;7.032;2024-01-30T14:49:54;11.20;99.90
43015;DHT22;28637;50.554;7.032;2024-01-30T14:54:54;11.20;99.90
43015;DHT22;28637;50.554;7.032;2024-01-30T14:59:55;11.20;99.90
43015;DHT22;28637;50.554;7.032;2024-01-30T15:04:55;11.20;99.90
43015;DHT22;28637;50.554;7.032;2024-01-30T15:09:56;11.20;99.90
43015;DHT22;28637;50.554;7.032;2024-01-30T15:14:57;11.20;99.90
43015;DHT22;28637;50.554;7.032;2024-01-30T15:19:57;11.20;99.90
43015;DHT22;28637;50.554;7.032;2024-01-30T15:24:59;11.20;99.90
43015;DHT22;28637;50.554;7.032;2024-01-30T15:29:59;11.20;99.90
43015;DHT22;28637;50.554;7.032;2024-01-30T15:35:01;11.10;99.90
43015;DHT22;28637;50.554;7.032;2024-01-30T15:40:04;11.10;99.90
43015;DHT22;28637;50.554;7.032;2024-01-30T15:45:09;11.00;99.90
43015;DHT22;28637;50.554;7.032;2024-01-30T15:50:11;11.00;99.90
43015;DHT22;28637;50.554;7.032;2024-01-30T15:55:12;11.00;99.90
43015;DHT22;28637;50.554;7.032;2024-01-30T16:00:15;11.00;99.90
43015;DHT22;28637;50.554;7.032;2024-01-30T16:05:15;11.00;99.90
43015;DHT22;28637;50.554;7.032;2024-01-30T16:10:16;10.90;99.90
43015;DHT22;28637;50.554;7.032;2024-01-30T16:15:17;10.90;99.90
43015;DHT22;28637;50.554;7.032;2024-01-30T16:20:21;10.90;99.90
43015;DHT22;28637;50.554;7.032;2024-01-30T16:31:18;11.00;99.90
43015;DHT22;28637;50.554;7.032;2024-01-30T16:36:20;10.90;99.90
43015;DHT22;28637;50.554;7.032;2024-01-30T16:41:21;10.90;99.90
43015;DHT22;28637;50.554;7.032;2024-01-30T16:46:22;10.90;99.90
43015;DHT22;28637;50.554;7.032;2024-01-30T16:51:23;11.00;99.90
43015;DHT22;28637;50.554;7.032;2024-01-30T16:56:23;11.00;99.90
43015;DHT22;28637;50.554;7.032;2024-01-30T17:01:24;10.90;99.90
43015;DHT22;28637;50.554;7.032;2024-01-30T17:06:25;10.90;99.90
43015;DHT22;28637;50.554;7.032;2024-01-30T17:11:26;10.90;99.90
43015;DHT22;28637;50.554;7.032;2024-01-30T17:16:26;11.20;99.90
43015;DHT22;28637;50.554;7.032;2024-01-30T17:21:27;11.10;99.90
43015;DHT22;28637;50.554;7.032;2024-01-30T17:26:29;11.10;99.90
43015;DHT22;28637;50.554;7.032;2024-01-30T17:31:30;11.10;99.90
43015;DHT22;28637;50.554;7.032;2024-01-30T17:36:32;11.10;99.90
43015;DHT22;28637;50.554;7.032;2024-01-30T17:41:32;11.20;99.90
43015;DHT22;28637;50.554;7.032;2024-01-30T17:46:35;11.20;99.90
43015;DHT22;28637;50.554;7.032;2024-01-30T17:51:39;11.20;99.90
43015;DHT22;28637;50.554;7.032;2024-01-30T17:56:40;11.20;99.90
43015;DHT22;28637;50.554;7.032;2024-01-30T18:01:46;11.20;99.90
43015;DHT22;28637;50.554;7.032;2024-01-30T18:06:51;11.10;99.90
43015;DHT22;28637;50.554;7.032;2024-01-30T18:11:52;11.00;99.90
43015;DHT22;28637;50.554;7.032;2024-01-30T18:17:17;10.90;99.90
43015;DHT22;28637;50.554;7.032;2024-01-30T18:22:18;10.80;99.90
43015;DHT22;28637;50.554;7.032;2024-01-30T18:27:19;10.70;99.90
43015;DHT22;28637;50.554;7.032;2024-01-30T18:32:21;10.70;99.90
43015;DHT22;28637;50.554;7.032;2024-01-30T18:37:23;10.70;99.90
43015;DHT22;28637;50.554;7.032;2024-01-30T18:42:23;10.60;99.90
43015;DHT22;28637;50.554;7.032;2024-01-30T18:47:24;10.60;99.90
43015;DHT22;28637;50.554;7.032;2024-01-30T18:52:25;10.50;99.90
43015;DHT22;28637;50.554;7.032;2024-01-30T18:57:26;10.40;99.90
43015;DHT22;28637;50.554;7.032;2024-01-30T19:02:28;10.40;99.90
43015;DHT22;28637;50.554;7.032;2024-01-30T19:07:29;10.40;99.90
43015;DHT22;28637;50.554;7.032;2024-01-30T19:12:30;10.40;99.90
43015;DHT22;28637;50.554;7.032;2024-01-30T19:17:30;10.30;99.90
43015;DHT22;28637;50.554;7.032;2024-01-30T19:28:28;10.30;99.90
43015;DHT22;28637;50.554;7.032;2024-01-30T19:33:28;10.30;99.90
43015;DHT22;28637;50.554;7.032;2024-01-30T19:38:29;10.20;99.90
43015;DHT22;28637;50.554;7.032;2024-01-30T19:43:30;10.20;99.90
43015;DHT22;28637;50.554;7.032;2024-01-30T19:48:32;10.20;99.90
43015;DHT22;28637;50.554;7.032;2024-01-30T19:53:32;10.20;99.90
43015;DHT22;28637;50.554;7.032;2024-01-30T19:58:42;10.10;99.90
43015;DHT22;28637;50.554;7.032;2024-01-30T20:03:43;10.20;99.90
43015;DHT22;28637;50.554;7.032;2024-01-30T20:08:43;10.10;99.90
43015;DHT22;28637;50.554;7.032;2024-01-30T20:13:44;10.10;99.90
43015;DHT22;28637;50.554;7.032;2024-01-30T20:25:05;10.10;99.90
43015;DHT22;28637;50.554;7.032;2024-01-30T20:30:06;10.00;99.90
43015;DHT22;28637;50.554;7.032;2024-01-30T20:35:11;9.90;99.90
43015;DHT22;28637;50.554;7.032;2024-01-30T20:40:11;9.80;99.90
43015;DHT22;28637;50.554;7.032;2024-01-30T20:45:12;9.70;99.90
43015;DHT22;28637;50.554;7.032;2024-01-30T20:50:13;9.70;99.90
43015;DHT22;28637;50.554;7.032;2024-01-30T20:55:13;9.60;99.90
43015;DHT22;28637;50.554;7.032;2024-01-30T21:00:14;9.60;99.90
43015;DHT22;28637;50.554;7.032;2024-01-30T21:05:15;9.70;99.90
43015;DHT22;28637;50.554;7.032;2024-01-30T21:10:19;9.70;99.90
43015;DHT22;28637;50.554;7.032;2024-01-30T21:15:19;9.60;99.90
43015;DHT22;28637;50.554;7.032;2024-01-30T21:20:20;9.60;99.90
43015;DHT22;28637;50.554;7.032;2024-01-30T21:25:21;9.50;99.90
43015;DHT22;28637;50.554;7.032;2024-01-30T21:30:21;9.40;99.90
43015;DHT22;28637;50.554;7.032;2024-01-30T21:35:22;9.40;99.90
43015;DHT22;28637;50.554;7.032;2024-01-30T21:40:22;9.30;99.90
43015;DHT22;28637;50.554;7.032;2024-01-30T21:45:23;9.20;99.90
43015;DHT22;28637;50.554;7.032;2024-01-30T21:50:25;9.20;99.90
43015;DHT22;28637;50.554;7.032;2024-01-30T21:55:25;9.10;99.90
43015;DHT22;28637;50.554;7.032;2024-01-30T22:00:26;9.00;99.90
43015;DHT22;28637;50.554;7.032;2024-01-30T22:05:27;9.00;99.90
43015;DHT22;28637;50.554;7.032;2024-01-30T22:10:27;8.90;99.90
43015;DHT22;28637;50.554;7.032;2024-01-30T22:15:28;8.90;99.90
43015;DHT22;28637;50.554;7.032;2024-01-30T22:20:29;8.80;99.90
43015;DHT22;28637;50.554;7.032;2024-01-30T22:25:31;8.80;99.90
43015;DHT22;28637;50.554;7.032;2024-01-30T22:30:31;8.70;99.90
43015;DHT22;28637;50.554;7.032;2024-01-30T22:35:32;8.60;99.90
43015;DHT22;28637;50.554;7.032;2024-01-30T22:40:33;8.60;99.90
43015;DHT22;28637;50.554;7.032;2024-01-30T22:45:34;8.50;99.90
43015;DHT22;28637;50.554;7.032;2024-01-30T22:50:34;8.50;99.90
43015;DHT22;28637;50.554;7.032;2024-01-30T23:01:32;8.20;99.90
43015;DHT22;28637;50.554;7.032;2024-01-30T23:06:32;8.20;99.90
43015;DHT22;28637;50.554;7.032;2024-01-30T23:11:33;8.20;99.90
43015;DHT22;28637;50.554;7.032;2024-01-30T23:16:33;8.30;99.90
43015;DHT22;28637;50.554;7.032;2024-01-30T23:21:35;8.30;99.90
43015;DHT22;28637;50.554;7.032;2024-01-30T23:26:40;8.30;99.90
43015;DHT22;28637;50.554;7.032;2024-01-30T23:31:41;8.30;99.90
43015;DHT22;28637;50.554;7.032;2024-01-30T23:36:45;8.30;99.90
43015;DHT22;28637;50.554;7.032;2024-01-30T23:41:46;8.30;99.90
43015;DHT22;28637;50.554;7.032;2024-01-30T23:46:46;8.20;99.90
43015;DHT22;28637;50.554;7.032;2024-01-30T23:51:47;8.30;99.90
43015;DHT22;28637;50.554;7.032;2024-01-30T23:56:48;8.30;99.90
